createdAt,value
2023-12-18T00:01:10.727Z,101570.13
2023-12-18T00:03:37.383Z,101562.25
2023-12-18T00:06:04.519Z,101561.41
2023-12-18T00:08:31.006Z,101562.31
2023-12-18T00:10:57.631Z,101549.94
2023-12-18T00:13:24.116Z,101542.97
2023-12-18T00:15:50.601Z,101536.91
2023-12-18T00:18:17.341Z,101540.38
2023-12-18T00:20:43.870Z,101539.56
2023-12-18T00:23:10.545Z,101543.03
2023-12-18T00:25:37.031Z,101542.91
2023-12-18T00:28:03.883Z,101539.28
2023-12-18T00:30:30.629Z,101545.41
2023-12-18T00:32:57.290Z,101551.31
2023-12-18T00:35:24.117Z,101553.81
2023-12-18T00:37:50.731Z,101543.88
2023-12-18T00:40:17.189Z,101536.69
2023-12-18T00:42:44.001Z,101540.03
2023-12-18T00:45:10.552Z,101538.50
2023-12-18T00:47:37.110Z,101536.25
2023-12-18T00:50:07.670Z,101527.59
2023-12-18T00:52:36.160Z,101534.75
2023-12-18T00:55:03.950Z,101524.34
2023-12-18T00:57:30.470Z,101530.56
2023-12-18T00:59:57.149Z,101526.19
2023-12-18T01:02:23.667Z,101514.78
2023-12-18T01:04:50.161Z,101525.31
2023-12-18T01:07:16.801Z,101526.25
2023-12-18T01:09:43.487Z,101517.59
2023-12-18T01:12:10.284Z,101513.25
2023-12-18T01:14:37.092Z,101509.78
2023-12-18T01:17:03.623Z,101508.13
2023-12-18T01:19:30.731Z,101517.34
2023-12-18T01:21:57.241Z,101518.38
2023-12-18T01:24:25.974Z,101514.94
2023-12-18T01:26:52.588Z,101503.69
2023-12-18T01:29:19.033Z,101483.63
2023-12-18T01:31:45.517Z,101480.88
2023-12-18T01:34:12.289Z,101474.75
2023-12-18T01:36:38.968Z,101480.13
2023-12-18T01:39:05.597Z,101475.44
2023-12-18T01:41:32.228Z,101471.97
2023-12-18T01:43:58.762Z,101476.38
2023-12-18T01:46:26.144Z,101486.00
2023-12-18T01:48:53.602Z,101487.94
2023-12-18T01:51:21.461Z,101489.78
2023-12-18T01:53:49.945Z,101494.28
2023-12-18T01:56:21.503Z,101494.97
2023-12-18T01:58:48.116Z,101499.59
2023-12-18T02:01:15.056Z,101506.69
2023-12-18T02:03:42.357Z,101507.69
2023-12-18T02:06:09.107Z,101515.53
2023-12-18T02:08:36.188Z,101519.16
2023-12-18T02:11:02.918Z,101515.66
2023-12-18T02:13:29.470Z,101500.81
2023-12-18T02:15:56.010Z,101513.94
2023-12-18T02:18:22.752Z,101514.06
2023-12-18T02:20:49.359Z,101512.34
2023-12-18T02:23:15.880Z,101512.38
2023-12-18T02:25:42.500Z,101508.94
2023-12-18T02:28:11.517Z,101509.72
2023-12-18T02:30:38.251Z,101516.78
2023-12-18T02:33:05.392Z,101514.22
2023-12-18T02:35:32.008Z,101512.50
2023-12-18T02:37:58.712Z,101507.00
2023-12-18T02:40:26.413Z,101505.47
2023-12-18T02:42:53.620Z,101502.03
2023-12-18T02:45:20.318Z,101495.00
2023-12-18T02:47:47.225Z,101497.69
2023-12-18T02:50:14.365Z,101488.00
2023-12-18T02:52:40.988Z,101487.13
2023-12-18T02:55:08.539Z,101488.88
2023-12-18T02:57:35.025Z,101490.56
2023-12-18T03:00:01.793Z,101483.25
2023-12-18T03:02:28.410Z,101479.72
2023-12-18T03:04:54.951Z,101475.28
2023-12-18T03:07:21.690Z,101491.94
2023-12-18T03:09:48.238Z,101486.72
2023-12-18T03:12:14.825Z,101494.50
2023-12-18T03:14:41.429Z,101504.31
2023-12-18T03:17:07.954Z,101498.19
2023-12-18T03:19:34.871Z,101489.47
2023-12-18T03:22:01.668Z,101492.25
2023-12-18T03:24:28.150Z,101478.25
2023-12-18T03:26:54.758Z,101482.63
2023-12-18T03:29:21.514Z,101486.97
2023-12-18T03:31:48.232Z,101473.06
2023-12-18T03:34:14.829Z,101475.91
2023-12-18T03:36:41.427Z,101488.19
2023-12-18T03:39:08.050Z,101494.38
2023-12-18T03:41:34.487Z,101480.34
2023-12-18T03:44:00.925Z,101479.47
2023-12-18T03:46:27.481Z,101477.84
2023-12-18T03:48:54.068Z,101477.94
2023-12-18T03:51:20.826Z,101476.16
2023-12-18T03:53:47.297Z,101480.56
2023-12-18T03:56:13.716Z,101488.47
2023-12-18T03:58:40.342Z,101490.22
2023-12-18T04:01:06.975Z,101485.88
2023-12-18T04:03:34.545Z,101481.44
2023-12-18T04:06:01.851Z,101489.41
2023-12-18T04:08:28.365Z,101485.94
2023-12-18T04:10:54.816Z,101491.22
2023-12-18T04:13:21.589Z,101489.44
2023-12-18T04:15:48.467Z,101486.88
2023-12-18T04:18:15.128Z,101473.78
2023-12-18T04:20:41.835Z,101479.06
2023-12-18T04:23:08.405Z,101473.00
2023-12-18T04:25:35.582Z,101479.06
2023-12-18T04:28:02.179Z,101478.97
2023-12-18T04:30:56.720Z,101472.78
2023-12-18T04:33:23.788Z,101472.81
2023-12-18T04:35:50.390Z,101467.53
2023-12-18T04:38:17.784Z,101471.84
2023-12-18T04:40:44.276Z,101453.47
2023-12-18T04:43:10.875Z,101453.47
2023-12-18T04:45:37.440Z,101456.06
2023-12-18T04:48:04.452Z,101452.47
2023-12-18T04:50:31.203Z,101454.09
2023-12-18T04:52:57.701Z,101450.63
2023-12-18T04:55:24.270Z,101448.78
2023-12-18T04:57:50.784Z,101455.75
2023-12-18T05:00:17.592Z,101455.66
2023-12-18T05:02:44.283Z,101452.94
2023-12-18T05:05:11.164Z,101463.50
2023-12-18T05:07:37.679Z,101469.72
2023-12-18T05:10:04.525Z,101463.66
2023-12-18T05:12:31.264Z,101465.28
2023-12-18T05:14:59.463Z,101460.19
2023-12-18T05:17:28.993Z,101475.19
2023-12-18T05:19:55.469Z,101467.25
2023-12-18T05:22:22.160Z,101472.63
2023-12-18T05:24:48.737Z,101463.91
2023-12-18T05:27:15.386Z,101473.47
2023-12-18T05:29:42.009Z,101483.28
2023-12-18T05:32:08.566Z,101479.69
2023-12-18T05:34:35.428Z,101469.22
2023-12-18T05:37:03.331Z,101472.81
2023-12-18T05:39:29.988Z,101467.53
2023-12-18T05:41:56.686Z,101468.47
2023-12-18T05:44:23.233Z,101476.38
2023-12-18T05:46:49.923Z,101477.25
2023-12-18T05:49:19.433Z,101474.47
2023-12-18T05:51:46.167Z,101477.97
2023-12-18T05:54:12.790Z,101489.31
2023-12-18T05:56:39.479Z,101483.19
2023-12-18T05:59:05.971Z,101484.09
2023-12-18T06:01:32.522Z,101480.56
2023-12-18T06:03:59.268Z,101470.06
2023-12-18T06:06:25.845Z,101477.78
2023-12-18T06:08:52.501Z,101479.59
2023-12-18T06:11:19.004Z,101485.78
2023-12-18T06:13:45.831Z,101478.72
2023-12-18T06:16:12.380Z,101484.94
2023-12-18T06:18:39.709Z,101480.63
2023-12-18T06:21:07.167Z,101481.50
2023-12-18T06:23:33.829Z,101490.25
2023-12-18T06:26:03.373Z,101487.63
2023-12-18T06:28:30.398Z,101485.13
2023-12-18T06:30:57.607Z,101484.28
2023-12-18T06:33:24.424Z,101486.03
2023-12-18T06:35:51.193Z,101481.69
2023-12-18T06:38:17.794Z,101484.25
2023-12-18T06:40:44.317Z,101479.97
2023-12-18T06:43:10.938Z,101484.41
2023-12-18T06:45:37.434Z,101481.69
2023-12-18T06:48:10.412Z,101480.84
2023-12-18T06:50:37.009Z,101476.56
2023-12-18T06:53:03.540Z,101485.34
2023-12-18T06:55:30.463Z,101487.97
2023-12-18T06:57:56.991Z,101485.38
2023-12-18T07:00:35.674Z,101488.91
2023-12-18T07:03:07.787Z,101485.44
2023-12-18T07:05:34.624Z,101496.81
2023-12-18T07:08:01.366Z,101494.19
2023-12-18T07:10:28.034Z,101495.00
2023-12-18T07:12:54.824Z,101493.22
2023-12-18T07:15:25.223Z,101488.00
2023-12-18T07:17:52.710Z,101494.13
2023-12-18T07:20:19.493Z,101496.75
2023-12-18T07:22:46.812Z,101509.94
2023-12-18T07:25:13.277Z,101516.94
2023-12-18T07:27:40.164Z,101526.56
2023-12-18T07:30:07.244Z,101522.16
2023-12-18T07:32:34.377Z,101520.44
2023-12-18T07:35:02.530Z,101533.56
2023-12-18T07:37:29.994Z,101521.31
2023-12-18T07:39:57.260Z,101515.19
2023-12-18T07:42:24.673Z,101521.28
2023-12-18T07:44:54.238Z,101518.69
2023-12-18T07:47:20.772Z,101521.31
2023-12-18T07:49:50.864Z,101516.91
2023-12-18T07:52:18.428Z,101511.66
2023-12-18T07:54:45.199Z,101509.94
2023-12-18T07:57:12.077Z,101509.94
2023-12-18T07:59:40.812Z,101510.84
2023-12-18T08:02:08.540Z,101501.22
2023-12-18T08:04:36.452Z,101515.19
2023-12-18T08:07:04.404Z,101505.56
2023-12-18T08:09:31.148Z,101510.75
2023-12-18T08:11:58.317Z,101518.59
2023-12-18T08:14:24.969Z,101514.22
2023-12-18T08:16:52.160Z,101508.00
2023-12-18T08:19:19.274Z,101507.13
2023-12-18T08:21:45.994Z,101499.13
2023-12-18T08:24:12.616Z,101515.00
2023-12-18T08:26:39.252Z,101524.63
2023-12-18T08:29:07.818Z,101517.50
2023-12-18T08:31:35.770Z,101525.47
2023-12-18T08:34:02.612Z,101530.66
2023-12-18T08:36:31.471Z,101519.13
2023-12-18T08:38:58.024Z,101520.00
2023-12-18T08:41:24.625Z,101516.44
2023-12-18T08:43:58.671Z,101509.34
2023-12-18T08:46:32.183Z,101503.34
2023-12-18T08:48:59.131Z,101509.59
2023-12-18T08:51:25.698Z,101518.38
2023-12-18T08:53:52.954Z,101526.03
2023-12-18T08:56:19.616Z,101520.66
2023-12-18T08:58:46.477Z,101525.09
2023-12-18T09:01:13.199Z,101515.41
2023-12-18T09:03:39.825Z,101502.91
2023-12-18T09:06:06.572Z,101517.84
2023-12-18T09:08:40.988Z,101515.09
2023-12-18T09:11:09.113Z,101519.44
2023-12-18T09:13:39.509Z,101515.94
2023-12-18T09:16:06.921Z,101510.88
2023-12-18T09:18:34.283Z,101516.06
2023-12-18T09:21:01.680Z,101520.25
2023-12-18T09:23:29.637Z,101516.72
2023-12-18T09:25:56.822Z,101509.31
2023-12-18T09:28:23.606Z,101509.31
2023-12-18T09:30:50.341Z,101498.63
2023-12-18T09:33:17.200Z,101502.84
2023-12-18T09:35:44.343Z,101493.47
2023-12-18T09:38:10.927Z,101493.44
2023-12-18T09:40:37.740Z,101494.44
2023-12-18T09:43:05.173Z,101486.25
2023-12-18T09:45:32.374Z,101487.84
2023-12-18T09:47:59.906Z,101485.38
2023-12-18T09:50:26.770Z,101484.50
2023-12-18T09:53:08.130Z,101486.06
2023-12-18T09:55:35.974Z,101484.34
2023-12-18T09:58:03.763Z,101477.22
2023-12-18T10:00:30.466Z,101477.19
2023-12-18T10:02:59.737Z,101479.88
2023-12-18T10:05:27.161Z,101471.03
2023-12-18T10:07:55.048Z,101462.22
2023-12-18T10:10:22.320Z,101461.19
2023-12-18T10:12:49.193Z,101455.16
2023-12-18T10:15:15.866Z,101457.75
2023-12-18T10:17:43.626Z,101454.00
2023-12-18T10:20:11.620Z,101443.38
2023-12-18T10:22:40.335Z,101429.75
2023-12-18T10:25:07.458Z,101427.13
2023-12-18T10:27:35.099Z,101423.56
2023-12-18T10:30:01.941Z,101420.31
2023-12-18T10:32:28.986Z,101404.28
2023-12-18T10:34:56.866Z,101403.50
2023-12-18T10:37:26.692Z,101408.34
2023-12-18T10:39:56.203Z,101408.41
2023-12-18T10:42:32.972Z,101413.94
2023-12-18T10:45:03.148Z,101403.06
2023-12-18T10:47:32.215Z,101387.31
2023-12-18T10:50:02.119Z,101404.81
2023-12-18T10:52:33.293Z,101404.00
2023-12-18T10:55:08.940Z,101407.50
2023-12-18T10:57:38.413Z,101393.00
2023-12-18T11:00:09.530Z,101388.47
2023-12-18T11:02:39.184Z,101388.63
2023-12-18T11:05:07.348Z,101389.00
2023-12-18T11:07:34.544Z,101388.69
2023-12-18T11:10:01.605Z,101388.97
2023-12-18T11:12:29.280Z,101385.47
2023-12-18T11:15:17.337Z,101385.28
2023-12-18T11:18:29.335Z,101391.38
2023-12-18T11:20:58.751Z,101395.72
2023-12-18T11:23:28.384Z,101387.09
2023-12-18T11:25:56.127Z,101373.72
2023-12-18T11:28:26.340Z,101377.13
2023-12-18T11:31:01.593Z,101379.19
2023-12-18T11:33:36.102Z,101371.91
2023-12-18T11:36:11.354Z,101375.56
2023-12-18T11:38:37.981Z,101361.53
2023-12-18T11:41:04.958Z,101360.94
2023-12-18T11:43:42.387Z,101357.06
2023-12-18T11:46:18.310Z,101357.13
2023-12-18T11:48:47.719Z,101349.09
2023-12-18T11:51:15.043Z,101350.44
2023-12-18T11:53:41.800Z,101343.78
2023-12-18T11:56:13.228Z,101338.38
2023-12-18T11:58:45.430Z,101335.25
2023-12-18T12:01:13.733Z,101325.72
2023-12-18T12:03:41.543Z,101326.50
2023-12-18T12:06:09.653Z,101325.63
2023-12-18T12:09:02.816Z,101322.53
2023-12-18T12:11:29.533Z,101323.78
2023-12-18T12:13:56.146Z,101319.88
2023-12-18T12:16:23.221Z,101323.53
2023-12-18T12:18:52.277Z,101318.59
2023-12-18T12:21:19.600Z,101317.56
2023-12-18T12:23:48.537Z,101315.88
2023-12-18T12:26:17.794Z,101308.28
2023-12-18T12:28:44.416Z,101309.56
2023-12-18T12:31:11.729Z,101317.56
2023-12-18T12:33:42.615Z,101319.28
2023-12-18T12:36:10.163Z,101304.53
2023-12-18T12:38:44.830Z,101314.16
2023-12-18T12:41:11.838Z,101307.88
2023-12-18T12:43:38.467Z,101300.91
2023-12-18T12:46:06.916Z,101306.81
2023-12-18T12:48:36.392Z,101290.34
2023-12-18T12:51:03.575Z,101287.38
2023-12-18T12:53:31.851Z,101278.06
2023-12-18T12:56:00.188Z,101277.22
2023-12-18T12:58:26.933Z,101276.56
2023-12-18T13:00:53.543Z,101277.72
2023-12-18T13:03:20.871Z,101271.38
2023-12-18T13:05:48.417Z,101275.66
2023-12-18T13:08:15.138Z,101257.69
2023-12-18T13:10:41.615Z,101252.28
2023-12-18T13:13:09.118Z,101245.56
2023-12-18T13:15:36.693Z,101236.41
2023-12-18T13:18:03.605Z,101240.13
2023-12-18T13:20:30.521Z,101228.31
2023-12-18T13:22:57.595Z,101221.28
2023-12-18T13:25:24.473Z,101213.66
2023-12-18T13:27:52.023Z,101205.38
2023-12-18T13:30:18.901Z,101211.28
2023-12-18T13:32:46.164Z,101209.00
2023-12-18T13:35:13.115Z,101215.22
2023-12-18T13:37:39.980Z,101208.03
2023-12-18T13:40:07.189Z,101202.81
2023-12-18T13:42:33.805Z,101221.38
2023-12-18T13:45:03.066Z,101228.66
2023-12-18T13:47:30.344Z,101215.56
2023-12-18T13:49:57.188Z,101210.59
2023-12-18T13:52:25.732Z,101211.53
2023-12-18T13:54:52.854Z,101204.97
2023-12-18T13:57:19.927Z,101200.75
2023-12-18T13:59:46.493Z,101204.47
2023-12-18T14:02:13.169Z,101201.81
2023-12-18T14:04:39.737Z,101195.84
2023-12-18T14:07:07.136Z,101191.44
2023-12-18T14:09:33.692Z,101193.91
2023-12-18T14:12:00.399Z,101185.91
2023-12-18T14:14:26.982Z,101189.25
2023-12-18T14:16:53.610Z,101183.09
2023-12-18T14:19:20.174Z,101182.25
2023-12-18T14:21:46.813Z,101182.16
2023-12-18T14:24:14.862Z,101185.09
2023-12-18T14:26:42.562Z,101177.47
2023-12-18T14:29:09.081Z,101184.63
2023-12-18T14:31:35.641Z,101198.84
2023-12-18T14:34:02.535Z,101190.19
2023-12-18T14:36:30.476Z,101196.50
2023-12-18T14:38:57.144Z,101196.72
2023-12-18T14:41:24.420Z,101193.09
2023-12-18T14:43:51.169Z,101189.91
2023-12-18T14:46:17.892Z,101178.25
2023-12-18T14:48:44.763Z,101171.16
2023-12-18T14:51:11.537Z,101171.06
2023-12-18T14:53:38.584Z,101168.41
2023-12-18T14:56:06.019Z,101164.59
2023-12-18T14:58:35.430Z,101171.91
2023-12-18T15:01:02.162Z,101167.75
2023-12-18T15:03:28.870Z,101168.91
2023-12-18T15:05:55.712Z,101168.50
2023-12-18T15:08:22.312Z,101168.03
2023-12-18T15:10:49.005Z,101166.63
2023-12-18T15:13:15.543Z,101161.72
2023-12-18T15:15:42.253Z,101171.56
2023-12-18T15:18:08.910Z,101177.53
2023-12-18T15:20:35.569Z,101174.28
2023-12-18T15:23:02.174Z,101180.53
2023-12-18T15:25:28.654Z,101175.34
2023-12-18T15:27:56.313Z,101181.53
2023-12-18T15:30:24.239Z,101182.50
2023-12-18T15:32:51.389Z,101179.91
2023-12-18T15:35:19.961Z,101186.97
2023-12-18T15:37:46.725Z,101186.00
2023-12-18T15:40:13.505Z,101192.28
2023-12-18T15:42:41.102Z,101183.69
2023-12-18T15:45:08.634Z,101184.00
2023-12-18T15:47:35.338Z,101184.91
2023-12-18T15:50:02.486Z,101185.00
2023-12-18T15:52:29.265Z,101187.53
2023-12-18T15:54:56.072Z,101190.38
2023-12-18T15:57:25.292Z,101183.38
2023-12-18T15:59:52.356Z,101172.06
2023-12-18T16:02:19.872Z,101168.72
2023-12-18T16:04:46.685Z,101159.13
2023-12-18T16:07:13.726Z,101173.22
2023-12-18T16:09:40.380Z,101183.78
2023-12-18T16:12:07.555Z,101175.84
2023-12-18T16:14:36.144Z,101170.56
2023-12-18T16:17:04.179Z,101186.34
2023-12-18T16:19:30.742Z,101196.16
2023-12-18T16:21:57.469Z,101181.19
2023-12-18T16:24:24.077Z,101172.72
2023-12-18T16:26:50.741Z,101175.50
2023-12-18T16:29:17.347Z,101175.63
2023-12-18T16:31:44.259Z,101169.44
2023-12-18T16:34:11.197Z,101175.69
2023-12-18T16:36:38.135Z,101177.34
2023-12-18T16:39:05.093Z,101165.84
2023-12-18T16:41:33.960Z,101162.50
2023-12-18T16:44:00.755Z,101163.34
2023-12-18T16:46:32.694Z,101152.13
2023-12-18T16:49:06.675Z,101131.25
2023-12-18T16:51:33.558Z,101130.47
2023-12-18T16:54:00.237Z,101127.94
2023-12-18T16:56:26.787Z,101133.31
2023-12-18T16:58:53.308Z,101122.81
2023-12-18T17:01:23.077Z,101113.94
2023-12-18T17:03:50.645Z,101111.38
2023-12-18T17:06:18.096Z,101112.22
2023-12-18T17:08:44.722Z,101138.53
2023-12-18T17:11:12.065Z,101138.56
2023-12-18T17:13:39.036Z,101152.56
2023-12-18T17:16:06.086Z,101145.47
2023-12-18T17:18:32.840Z,101145.41
2023-12-18T17:21:01.932Z,101132.22
2023-12-18T17:23:28.564Z,101133.09
2023-12-18T17:25:55.275Z,101141.16
2023-12-18T17:28:24.377Z,101126.25
2023-12-18T17:30:51.362Z,101116.63
2023-12-18T17:33:19.955Z,101112.28
2023-12-18T17:35:46.795Z,101115.00
2023-12-18T17:38:13.421Z,101110.63
2023-12-18T17:40:39.930Z,101098.41
2023-12-18T17:43:06.819Z,101095.19
2023-12-18T17:45:33.344Z,101093.38
2023-12-18T17:48:00.158Z,101110.03
2023-12-18T17:50:26.726Z,101105.66
2023-12-18T17:52:53.464Z,101098.88
2023-12-18T17:55:20.610Z,101091.88
2023-12-18T17:57:47.569Z,101091.97
2023-12-18T18:00:14.904Z,101091.97
2023-12-18T18:02:42.595Z,101086.56
2023-12-18T18:05:10.681Z,101083.22
2023-12-18T18:07:40.269Z,101087.56
2023-12-18T18:10:08.595Z,101095.41
2023-12-18T18:12:35.178Z,101081.47
2023-12-18T18:15:02.122Z,101090.38
2023-12-18T18:17:28.796Z,101087.69
2023-12-18T18:19:55.625Z,101092.94
2023-12-18T18:22:22.248Z,101087.59
2023-12-18T18:24:49.272Z,101071.84
2023-12-18T18:27:17.397Z,101072.75
2023-12-18T18:29:45.862Z,101083.38
2023-12-18T18:32:12.654Z,101078.03
2023-12-18T18:34:40.730Z,101072.97
2023-12-18T18:37:07.505Z,101052.88
2023-12-18T18:39:34.053Z,101045.16
2023-12-18T18:42:00.701Z,101058.09
2023-12-18T18:44:27.214Z,101056.25
2023-12-18T18:46:54.487Z,101058.69
2023-12-18T18:49:21.300Z,101054.22
2023-12-18T18:51:47.986Z,101083.22
2023-12-18T18:54:14.643Z,101102.06
2023-12-18T18:56:41.542Z,101115.09
2023-12-18T18:59:08.434Z,101132.81
2023-12-18T19:01:37.959Z,101098.47
2023-12-18T19:04:05.867Z,101128.38
2023-12-18T19:06:32.590Z,101115.25
2023-12-18T19:08:59.301Z,101098.31
2023-12-18T19:11:26.837Z,101112.56
2023-12-18T19:13:53.910Z,101104.63
2023-12-18T19:16:20.581Z,101093.09
2023-12-18T19:18:47.442Z,101121.25
2023-12-18T19:21:14.076Z,101108.03
2023-12-18T19:23:40.900Z,101099.03
2023-12-18T19:26:07.409Z,101080.56
2023-12-18T19:28:33.867Z,101063.16
2023-12-18T19:31:03.957Z,101054.59
2023-12-18T19:33:31.384Z,101059.91
2023-12-18T19:36:00.003Z,101051.22
2023-12-18T19:38:26.770Z,101048.75
2023-12-18T19:40:53.859Z,101068.91
2023-12-18T19:43:20.396Z,101075.69
2023-12-18T19:45:47.076Z,101069.38
2023-12-18T19:48:13.695Z,101077.47
2023-12-18T19:50:40.529Z,101071.09
2023-12-18T19:53:09.298Z,101084.03
2023-12-18T19:55:36.281Z,101055.97
2023-12-18T19:58:03.791Z,101049.19
2023-12-18T20:00:30.599Z,101041.22
2023-12-18T20:02:57.273Z,101027.19
2023-12-18T20:05:24.124Z,101020.34
2023-12-18T20:07:51.818Z,101030.72
2023-12-18T20:10:18.482Z,101027.84
2023-12-18T20:12:45.450Z,101032.94
2023-12-18T20:15:12.928Z,101018.97
2023-12-18T20:17:39.759Z,101021.69
2023-12-18T20:20:06.768Z,101007.75
2023-12-18T20:22:33.603Z,101015.84
2023-12-18T20:25:00.312Z,101021.69
2023-12-18T20:27:28.802Z,101027.22
2023-12-18T20:29:55.654Z,101027.81
2023-12-18T20:32:22.188Z,101029.66
2023-12-18T20:34:48.981Z,101009.31
2023-12-18T20:37:15.590Z,101008.28
2023-12-18T20:39:42.237Z,101004.03
2023-12-18T20:42:08.933Z,100992.81
2023-12-18T20:44:35.467Z,100986.53
2023-12-18T20:47:04.955Z,100997.16
2023-12-18T20:49:33.077Z,100977.66
2023-12-18T20:51:59.832Z,100952.06
2023-12-18T20:54:26.410Z,100963.41
2023-12-18T20:56:53.122Z,100972.28
2023-12-18T20:59:19.608Z,100977.47
2023-12-18T21:01:46.567Z,100969.66
2023-12-18T21:04:13.318Z,100974.16
2023-12-18T21:07:08.557Z,100955.47
2023-12-18T21:09:36.481Z,100952.25
2023-12-18T21:12:05.063Z,100954.19
2023-12-18T21:14:35.315Z,100942.50
2023-12-18T21:17:02.703Z,100945.00
2023-12-18T21:19:30.038Z,100939.88
2023-12-18T21:21:57.988Z,100939.22
2023-12-18T21:24:25.625Z,100927.81
2023-12-18T21:26:52.552Z,100914.38
2023-12-18T21:29:19.032Z,100909.88
2023-12-18T21:31:45.653Z,100906.63
2023-12-18T21:34:12.223Z,100922.50
2023-12-18T21:36:39.473Z,100914.31
2023-12-18T21:39:07.020Z,100915.25
2023-12-18T21:41:33.723Z,100923.97
2023-12-18T21:44:00.657Z,100926.69
2023-12-18T21:46:27.280Z,100925.72
2023-12-18T21:48:54.477Z,100920.31
2023-12-18T21:51:27.537Z,100930.88
2023-12-18T21:54:01.410Z,100930.69
2023-12-18T21:56:27.983Z,100931.38
2023-12-18T21:58:54.528Z,100932.13
2023-12-18T22:01:21.489Z,100931.25
2023-12-18T22:03:48.195Z,100921.53
2023-12-18T22:06:14.980Z,100929.72
2023-12-18T22:08:41.499Z,100930.53
2023-12-18T22:11:08.215Z,100928.75
2023-12-18T22:13:34.797Z,100914.75
2023-12-18T22:16:01.575Z,100903.66
2023-12-18T22:18:28.189Z,100903.56
2023-12-18T22:21:04.099Z,100898.41
2023-12-18T22:23:35.032Z,100923.81
2023-12-18T22:26:01.546Z,100915.09
2023-12-18T22:28:28.188Z,100928.03
2023-12-18T22:30:55.459Z,100943.00
2023-12-18T22:33:22.324Z,100944.53
2023-12-18T22:35:48.863Z,100956.41
2023-12-18T22:38:15.366Z,100955.81
2023-12-18T22:40:42.630Z,100932.28
2023-12-18T22:43:09.331Z,100921.72
2023-12-18T22:45:36.067Z,100915.66
2023-12-18T22:48:02.757Z,100904.56
2023-12-18T22:50:30.862Z,100903.03
2023-12-18T22:52:57.378Z,100907.31
2023-12-18T22:55:24.948Z,100921.97
2023-12-18T22:57:51.775Z,100920.41
2023-12-18T23:00:23.979Z,100915.50
2023-12-18T23:02:50.622Z,100905.94
2023-12-18T23:05:17.165Z,100884.03
2023-12-18T23:07:43.912Z,100880.09
2023-12-18T23:10:10.892Z,100895.97
2023-12-18T23:12:37.435Z,100896.06
2023-12-18T23:15:04.468Z,100879.72
2023-12-18T23:17:32.089Z,100883.50
2023-12-18T23:19:58.902Z,100894.16
2023-12-18T23:22:25.797Z,100894.16
2023-12-18T23:24:53.149Z,100882.94
2023-12-18T23:27:19.832Z,100880.22
2023-12-18T23:29:46.298Z,100890.94
2023-12-18T23:32:13.132Z,100879.50
2023-12-18T23:34:39.773Z,100867.22
2023-12-18T23:37:15.963Z,100868.97
2023-12-18T23:39:42.544Z,100863.75
2023-12-18T23:42:09.094Z,100845.56
2023-12-18T23:44:35.698Z,100851.72
2023-12-18T23:47:11.132Z,100859.59
2023-12-18T23:49:37.927Z,100859.69
2023-12-18T23:52:04.782Z,100859.66
2023-12-18T23:54:31.541Z,100858.66
2023-12-18T23:56:58.243Z,100866.50
2023-12-18T23:59:24.937Z,100865.50
